Miller, South Dakota
Current Conditions -  °F | °C
As of 1:55 AM on Thursday 29 Jan 2015 (Local Time) from KHON Reporting Station
Overcast Overcast  
Wind Chill: 21°   Ceiling: 2000
Heat Index: 33°   Visibility: 10mi
Dew Point: 27°   Wind: 23mph
Humidity: 78%   Direction: 330°NNW
Pressure: 30.18"   Gusts: 31mph
Location:  44.52°N, 98.99°W
Report Text: KHON 290755Z AUTO 33020G27KT 10SM BKN020 OVC027 01/M03 A3018 RMK AO2 PK WND 33028/0745 SLP233 T00061028
Loading
Personal Weather Stations






























Interactive Weather Map New forecast layout! Learn more

10-Day Weather Forecast

Advertisements
Track Severe Weather on mobile